createdAt,value
2018-02-05T00:00:29.499Z,17.48
2018-02-05T00:02:58.131Z,15.40
2018-02-05T00:05:26.487Z,15.80
2018-02-05T00:07:54.873Z,15.30
2018-02-05T00:10:24.144Z,14.95
2018-02-05T00:12:53.469Z,14.93
2018-02-05T00:15:21.895Z,15.95
2018-02-05T00:17:51.166Z,15.30
2018-02-05T00:20:19.710Z,14.52
2018-02-05T00:22:48.907Z,13.82
2018-02-05T00:25:18.143Z,15.93
2018-02-05T00:27:46.544Z,16.02
2018-02-05T00:30:14.872Z,15.00
2018-02-05T00:32:43.218Z,16.67
2018-02-05T00:35:13.064Z,15.38
2018-02-05T00:37:41.398Z,16.65
2018-02-05T00:40:10.533Z,16.05
2018-02-05T00:42:38.880Z,15.82
2018-02-05T00:45:07.227Z,17.60
2018-02-05T00:47:35.620Z,18.08
2018-02-05T00:50:05.481Z,16.25
2018-02-05T00:52:33.905Z,14.13
2018-02-05T00:55:02.231Z,17.50
2018-02-05T00:57:30.554Z,14.80
2018-02-05T01:00:00.475Z,16.80
2018-02-05T01:02:28.894Z,16.35
2018-02-05T01:04:57.227Z,15.82
2018-02-05T01:07:25.587Z,15.90
2018-02-05T01:09:53.904Z,16.10
2018-02-05T01:12:23.020Z,16.40
2018-02-05T01:14:51.571Z,15.25
2018-02-05T01:17:19.904Z,15.32
2018-02-05T01:19:48.426Z,16.58
2018-02-05T01:22:17.490Z,14.80
2018-02-05T01:24:45.896Z,15.35
2018-02-05T01:27:14.244Z,16.30
2018-02-05T01:29:42.575Z,16.20
2018-02-05T01:32:11.958Z,17.90
2018-02-05T01:34:41.163Z,16.58
2018-02-05T01:37:09.711Z,16.58
2018-02-05T01:39:38.108Z,15.73
2018-02-05T01:42:07.208Z,16.62
2018-02-05T01:44:36.363Z,16.53
2018-02-05T01:47:04.922Z,15.70
2018-02-05T01:49:33.246Z,17.40
2018-02-05T01:52:01.698Z,14.32
2018-02-05T01:54:30.041Z,16.20
2018-02-05T01:56:58.395Z,15.70
2018-02-05T01:59:26.748Z,17.48
2018-02-05T02:01:55.157Z,15.05
2018-02-05T02:04:23.525Z,15.15
2018-02-05T02:06:51.846Z,16.60
2018-02-05T02:09:20.163Z,15.80
2018-02-05T02:11:48.576Z,16.37
2018-02-05T02:14:16.963Z,14.77
2018-02-05T02:16:46.246Z,15.75
2018-02-05T02:19:15.334Z,16.33
2018-02-05T02:21:44.422Z,17.20
2018-02-05T02:24:13.495Z,15.48
2018-02-05T02:26:41.851Z,16.35
2018-02-05T02:29:10.288Z,17.23
2018-02-05T02:31:39.364Z,17.73
2018-02-05T02:34:08.535Z,17.50
2018-02-05T02:36:38.636Z,15.90
2018-02-05T02:39:06.968Z,16.62
2018-02-05T02:41:36.066Z,14.45
2018-02-05T02:44:05.185Z,13.85
2018-02-05T02:46:33.523Z,14.15
2018-02-05T02:49:01.858Z,13.62
2018-02-05T02:51:30.189Z,16.23
2018-02-05T02:53:59.111Z,14.48
2018-02-05T02:56:27.431Z,13.00
2018-02-05T02:58:55.739Z,13.98
2018-02-05T03:01:24.059Z,14.05
2018-02-05T03:03:52.382Z,13.10
2018-02-05T03:06:21.574Z,12.50
2018-02-05T03:08:50.848Z,12.82
2018-02-05T03:11:19.183Z,13.75
2018-02-05T03:13:47.498Z,13.43
2018-02-05T03:16:17.315Z,13.73
2018-02-05T03:18:47.146Z,14.05
2018-02-05T03:21:16.277Z,14.27
2018-02-05T03:23:44.670Z,14.18
2018-02-05T03:26:13.048Z,13.55
2018-02-05T03:28:41.386Z,12.90
2018-02-05T03:31:09.711Z,14.20
2018-02-05T03:33:38.060Z,14.52
2018-02-05T03:36:06.369Z,13.90
2018-02-05T03:38:34.687Z,15.80
2018-02-05T03:41:03.007Z,14.10
2018-02-05T03:43:31.461Z,11.90
2018-02-05T03:45:59.833Z,13.50
2018-02-05T03:48:28.142Z,13.43
2018-02-05T03:50:56.573Z,12.73
2018-02-05T03:53:24.927Z,12.65
2018-02-05T03:55:54.035Z,12.35
2018-02-05T03:58:23.172Z,16.02
2018-02-05T04:00:51.543Z,13.15
2018-02-05T04:03:19.865Z,14.18
2018-02-05T04:05:48.168Z,13.48
2018-02-05T04:08:16.503Z,12.82
2018-02-05T04:10:44.837Z,13.05
2018-02-05T04:13:13.197Z,14.65
2018-02-05T04:15:41.508Z,13.98
2018-02-05T04:18:09.829Z,14.98
2018-02-05T04:20:38.974Z,14.18
2018-02-05T04:23:07.286Z,14.27
2018-02-05T04:25:35.647Z,13.25
2018-02-05T04:28:03.958Z,13.35
2018-02-05T04:30:33.051Z,13.73
2018-02-05T04:33:02.315Z,14.60
2018-02-05T04:35:30.726Z,13.70
2018-02-05T04:37:59.903Z,13.55
2018-02-05T04:40:28.419Z,13.30
2018-02-05T04:42:56.748Z,13.27
2018-02-05T04:45:25.060Z,13.70
2018-02-05T04:47:54.147Z,14.77
2018-02-05T04:50:23.390Z,13.70
2018-02-05T04:52:52.533Z,12.93
2018-02-05T04:55:21.745Z,14.93
2018-02-05T04:57:51.044Z,13.20
2018-02-05T05:00:20.139Z,14.50
2018-02-05T05:02:49.439Z,13.82
2018-02-05T05:05:18.508Z,14.73
2018-02-05T05:07:46.988Z,13.70
2018-02-05T05:10:15.335Z,13.93
2018-02-05T05:12:43.643Z,13.57
2018-02-05T05:15:11.958Z,14.18
2018-02-05T05:17:40.289Z,13.73
2018-02-05T05:20:08.647Z,14.32
2018-02-05T05:22:36.983Z,14.52
2018-02-05T05:25:05.297Z,12.88
2018-02-05T05:27:34.298Z,12.32
2018-02-05T05:30:02.623Z,12.90
2018-02-05T05:32:31.715Z,14.20
2018-02-05T05:35:00.788Z,12.10
2018-02-05T05:37:30.780Z,14.13
2018-02-05T05:39:59.099Z,15.55
2018-02-05T05:42:27.419Z,14.52
2018-02-05T05:44:55.758Z,13.65
2018-02-05T05:47:24.104Z,14.15
2018-02-05T05:49:52.440Z,13.48
2018-02-05T05:52:21.056Z,14.00
2018-02-05T05:54:49.719Z,12.75
2018-02-05T05:57:18.103Z,13.90
2018-02-05T05:59:46.529Z,12.48
2018-02-05T06:02:15.123Z,14.13
2018-02-05T06:04:43.639Z,15.32
2018-02-05T06:07:12.122Z,13.70
2018-02-05T06:09:41.985Z,15.68
2018-02-05T06:12:10.564Z,14.20
2018-02-05T06:14:39.677Z,13.20
2018-02-05T06:17:08.088Z,14.05
2018-02-05T06:19:37.214Z,13.52
2018-02-05T06:22:06.355Z,16.65
2018-02-05T06:24:34.724Z,15.23
2018-02-05T06:27:03.084Z,14.25
2018-02-05T06:29:31.465Z,15.07
2018-02-05T06:31:59.891Z,13.93
2018-02-05T06:34:28.356Z,14.60
2018-02-05T06:36:56.964Z,14.87
2018-02-05T06:39:25.432Z,15.90
2018-02-05T06:41:53.757Z,15.00
2018-02-05T06:44:22.101Z,14.87
2018-02-05T06:46:52.675Z,14.27
2018-02-05T06:49:21.030Z,15.88
2018-02-05T06:52:07.743Z,15.80
2018-02-05T06:54:53.742Z,14.60
2018-02-05T06:57:22.564Z,14.43
2018-02-05T06:59:50.885Z,14.87
2018-02-05T07:02:19.956Z,14.27
2018-02-05T07:04:48.297Z,14.30
2018-02-05T07:07:16.625Z,14.02
2018-02-05T07:09:45.740Z,13.62
2018-02-05T07:12:14.818Z,13.73
2018-02-05T07:14:43.971Z,14.82
2018-02-05T07:17:12.313Z,15.45
2018-02-05T07:19:40.643Z,15.93
2018-02-05T07:22:08.984Z,15.68
2018-02-05T07:24:37.298Z,14.90
2018-02-05T07:27:06.407Z,15.55
2018-02-05T07:29:34.783Z,16.90
2018-02-05T07:32:03.148Z,15.15
2018-02-05T07:34:31.523Z,15.02
2018-02-05T07:37:01.400Z,15.98
2018-02-05T07:39:29.735Z,16.48
2018-02-05T07:41:58.848Z,15.45
2018-02-05T07:44:27.208Z,15.75
2018-02-05T07:46:56.298Z,14.32
2018-02-05T07:49:25.433Z,15.10
2018-02-05T07:51:54.729Z,16.65
2018-02-05T07:54:23.038Z,13.65
2018-02-05T07:56:51.454Z,13.00
2018-02-05T07:59:21.919Z,13.62
2018-02-05T08:01:50.288Z,13.70
2018-02-05T08:04:19.968Z,13.88
2018-02-05T08:06:49.111Z,15.10
2018-02-05T08:09:17.456Z,13.27
2018-02-05T08:11:45.950Z,14.60
2018-02-05T08:14:14.365Z,15.48
2018-02-05T08:16:44.214Z,19.27
2018-02-05T08:19:12.587Z,15.25
2018-02-05T08:21:43.101Z,16.50
2018-02-05T08:24:11.492Z,12.25
2018-02-05T08:26:39.815Z,13.50
2018-02-05T08:29:08.218Z,12.93
2018-02-05T08:31:36.533Z,12.75
2018-02-05T08:34:04.984Z,14.07
2018-02-05T08:36:33.493Z,14.15
2018-02-05T08:39:01.876Z,14.40
2018-02-05T08:41:30.587Z,12.25
2018-02-05T08:43:58.958Z,12.25
2018-02-05T08:46:27.489Z,13.00
2018-02-05T08:48:56.617Z,13.52
2018-02-05T08:51:25.153Z,13.55
2018-02-05T08:53:54.279Z,14.57
2018-02-05T08:56:22.594Z,14.65
2018-02-05T08:58:50.929Z,13.62
2018-02-05T09:01:19.276Z,13.57
2018-02-05T09:03:48.403Z,11.07
2018-02-05T09:06:16.729Z,11.65
2018-02-05T09:08:45.116Z,11.55
2018-02-05T09:11:14.441Z,10.23
2018-02-05T09:13:42.735Z,10.70
2018-02-05T09:16:11.149Z,12.02
2018-02-05T09:18:39.442Z,11.80
2018-02-05T09:21:08.633Z,11.45
2018-02-05T09:23:36.968Z,11.02
2018-02-05T09:26:05.280Z,11.05
2018-02-05T09:28:33.780Z,9.77
2018-02-05T09:31:02.276Z,11.77
2018-02-05T09:33:31.373Z,13.00
2018-02-05T09:36:00.465Z,11.40
2018-02-05T09:38:29.635Z,10.30
2018-02-05T09:40:57.971Z,9.77
2018-02-05T09:43:27.142Z,10.80
2018-02-05T09:45:56.245Z,11.20
2018-02-05T09:48:24.643Z,10.15
2018-02-05T09:50:53.132Z,9.70
2018-02-05T09:53:21.444Z,8.90
2018-02-05T09:55:49.853Z,9.02
2018-02-05T09:58:18.952Z,9.38
2018-02-05T10:00:47.280Z,7.18
2018-02-05T10:03:15.623Z,8.55
2018-02-05T10:05:43.950Z,8.93
2018-02-05T10:08:12.394Z,9.25
2018-02-05T10:10:40.811Z,8.77
2018-02-05T10:13:09.119Z,9.30
2018-02-05T10:15:37.440Z,8.60
2018-02-05T10:18:05.760Z,9.23
2018-02-05T10:20:34.892Z,8.95
2018-02-05T10:23:04.007Z,7.95
2018-02-05T10:25:32.426Z,7.15
2018-02-05T10:28:01.522Z,8.60
2018-02-05T10:30:30.935Z,7.12
2018-02-05T10:32:59.257Z,7.15
2018-02-05T10:35:27.742Z,7.50
2018-02-05T10:37:56.121Z,7.72
2018-02-05T10:40:24.566Z,7.97
2018-02-05T10:42:52.874Z,7.93
2018-02-05T10:45:21.235Z,8.20
2018-02-05T10:47:49.590Z,7.37
2018-02-05T10:50:17.938Z,8.27
2018-02-05T10:52:46.270Z,6.78
2018-02-05T10:55:14.832Z,7.03
2018-02-05T10:57:43.188Z,6.53
2018-02-05T11:00:11.518Z,6.78
2018-02-05T11:02:39.837Z,7.28
2018-02-05T11:05:08.186Z,7.00
2018-02-05T11:07:36.487Z,6.50
2018-02-05T11:10:04.807Z,6.90
2018-02-05T11:12:33.978Z,6.05
2018-02-05T11:15:02.311Z,6.70
2018-02-05T11:17:30.670Z,7.90
2018-02-05T11:19:59.138Z,6.50
2018-02-05T11:22:27.509Z,5.93
2018-02-05T11:24:55.851Z,5.93
2018-02-05T11:27:24.204Z,6.12
2018-02-05T11:29:53.310Z,6.50
2018-02-05T11:32:21.647Z,5.75
2018-02-05T11:34:49.948Z,6.43
2018-02-05T11:37:19.014Z,5.05
2018-02-05T11:39:47.413Z,6.10
2018-02-05T11:42:15.747Z,5.12
2018-02-05T11:44:44.060Z,6.30
2018-02-05T11:47:13.167Z,6.25
2018-02-05T11:49:42.284Z,5.53
2018-02-05T11:52:10.584Z,6.53
2018-02-05T11:54:38.978Z,6.60
2018-02-05T11:57:07.313Z,5.78
2018-02-05T11:59:35.640Z,5.20
2018-02-05T12:02:03.963Z,5.40
2018-02-05T12:04:32.460Z,4.70
2018-02-05T12:07:00.753Z,6.03
2018-02-05T12:09:29.217Z,5.53
2018-02-05T12:11:57.533Z,5.65
2018-02-05T12:14:26.340Z,5.85
2018-02-05T12:16:55.248Z,5.25
2018-02-05T12:19:23.692Z,5.10
2018-02-05T12:21:52.030Z,4.80
2018-02-05T12:24:20.354Z,5.45
2018-02-05T12:26:48.679Z,5.17
2018-02-05T12:29:17.020Z,5.20
2018-02-05T12:31:46.213Z,4.95
2018-02-05T12:34:14.740Z,5.37
2018-02-05T12:36:43.064Z,5.40
2018-02-05T12:39:12.199Z,5.93
2018-02-05T12:41:40.524Z,5.47
2018-02-05T12:44:08.861Z,6.07
2018-02-05T12:46:37.154Z,5.50
2018-02-05T12:49:05.473Z,6.25
2018-02-05T12:51:33.788Z,5.50
2018-02-05T12:54:02.262Z,6.20
2018-02-05T12:56:30.567Z,6.22
2018-02-05T12:58:58.898Z,5.55
2018-02-05T13:01:32.838Z,6.40
2018-02-05T13:04:03.462Z,5.60
2018-02-05T13:06:36.190Z,4.87
2018-02-05T13:09:05.274Z,6.18
2018-02-05T13:11:33.567Z,5.18
2018-02-05T13:14:02.646Z,6.00
2018-02-05T13:16:30.968Z,5.55
2018-02-05T13:18:59.261Z,5.80
2018-02-05T13:21:27.626Z,5.72
2018-02-05T13:23:55.956Z,5.57
2018-02-05T13:26:24.363Z,4.75
2018-02-05T13:28:52.689Z,6.30
2018-02-05T13:31:21.152Z,5.80
2018-02-05T13:33:49.452Z,6.70
2018-02-05T13:36:19.331Z,6.53
2018-02-05T13:38:47.680Z,5.60
2018-02-05T13:41:16.009Z,6.07
2018-02-05T13:43:44.343Z,5.68
2018-02-05T13:46:12.696Z,5.97
2018-02-05T13:48:41.800Z,6.75
2018-02-05T13:51:10.239Z,6.78
2018-02-05T13:53:38.645Z,6.90
2018-02-05T13:56:07.912Z,6.37
2018-02-05T13:58:37.022Z,6.25
2018-02-05T14:01:05.624Z,6.25
2018-02-05T14:03:34.044Z,6.40
2018-02-05T14:06:02.383Z,5.60
2018-02-05T14:08:31.510Z,6.20
2018-02-05T14:10:59.858Z,5.20
2018-02-05T14:13:28.182Z,4.82
2018-02-05T14:15:56.499Z,5.93
2018-02-05T14:18:25.631Z,6.45
2018-02-05T14:20:53.948Z,6.25
2018-02-05T14:23:22.275Z,5.80
2018-02-05T14:25:50.827Z,5.50
2018-02-05T14:28:20.127Z,6.18
2018-02-05T14:30:49.267Z,5.87
2018-02-05T14:33:17.626Z,6.72
2018-02-05T14:35:46.033Z,6.65
2018-02-05T14:38:14.501Z,7.20
2018-02-05T14:40:42.830Z,6.07
2018-02-05T14:43:11.965Z,5.80
2018-02-05T14:45:40.301Z,6.80
2018-02-05T14:48:09.400Z,6.30
2018-02-05T14:50:38.486Z,7.20
2018-02-05T14:53:07.891Z,6.12
2018-02-05T14:55:36.563Z,5.70
2018-02-05T14:58:05.665Z,6.45
2018-02-05T15:00:34.809Z,7.05
2018-02-05T15:03:03.142Z,6.80
2018-02-05T15:05:32.206Z,6.12
2018-02-05T15:08:00.646Z,6.20
2018-02-05T15:10:28.965Z,5.65
2018-02-05T15:12:57.271Z,5.80
2018-02-05T15:15:26.528Z,6.20
2018-02-05T15:17:54.902Z,6.12
2018-02-05T15:20:23.350Z,6.50
2018-02-05T15:22:52.488Z,6.87
2018-02-05T15:25:21.820Z,6.82
2018-02-05T15:27:50.994Z,6.45
2018-02-05T15:30:20.279Z,5.70
2018-02-05T15:32:48.599Z,6.10
2018-02-05T15:35:16.919Z,6.10
2018-02-05T15:37:45.398Z,7.28
2018-02-05T15:40:13.707Z,8.10
2018-02-05T15:42:42.251Z,6.32
2018-02-05T15:45:10.650Z,6.90
2018-02-05T15:47:39.754Z,6.95
2018-02-05T15:50:08.155Z,7.25
2018-02-05T15:52:36.498Z,7.40
2018-02-05T15:55:04.841Z,7.50
2018-02-05T15:57:33.156Z,7.20
2018-02-05T16:00:02.262Z,6.32
2018-02-05T16:02:32.657Z,7.07
2018-02-05T16:05:01.402Z,7.10
2018-02-05T16:07:30.267Z,8.10
2018-02-05T16:09:59.924Z,7.05
2018-02-05T16:12:28.778Z,6.70
2018-02-05T16:14:57.116Z,7.20
2018-02-05T16:17:26.450Z,7.72
2018-02-05T16:19:55.572Z,7.45
2018-02-05T16:22:24.396Z,8.18
2018-02-05T16:24:54.024Z,6.80
2018-02-05T16:27:23.626Z,7.57
2018-02-05T16:29:52.318Z,7.93
2018-02-05T16:32:20.699Z,8.65
2018-02-05T16:34:49.977Z,7.90
2018-02-05T16:37:18.360Z,10.70
2018-02-05T16:39:46.667Z,9.45
2018-02-05T16:42:15.161Z,8.10
2018-02-05T16:44:44.096Z,8.52
2018-02-05T16:47:13.223Z,8.50
2018-02-05T16:49:42.504Z,8.75
2018-02-05T16:52:10.926Z,7.85
2018-02-05T16:54:39.252Z,8.82
2018-02-05T16:57:07.621Z,9.15
2018-02-05T16:59:36.300Z,9.38
2018-02-05T17:02:04.665Z,8.50
2018-02-05T17:04:33.001Z,9.38
2018-02-05T17:07:01.313Z,8.73
2018-02-05T17:09:29.654Z,8.43
2018-02-05T17:11:57.996Z,9.60
2018-02-05T17:14:26.406Z,8.88
2018-02-05T17:16:54.714Z,8.80
2018-02-05T17:19:23.121Z,9.23
2018-02-05T17:21:51.459Z,9.02
2018-02-05T17:24:19.943Z,8.25
2018-02-05T17:26:48.273Z,9.63
2018-02-05T17:29:17.346Z,8.43
2018-02-05T17:31:45.798Z,10.00
2018-02-05T17:34:14.599Z,9.25
2018-02-05T17:36:42.916Z,9.48
2018-02-05T17:39:11.341Z,9.43
2018-02-05T17:41:39.665Z,9.00
2018-02-05T17:44:09.151Z,8.52
2018-02-05T17:46:38.241Z,9.35
2018-02-05T17:49:06.838Z,7.60
2018-02-05T17:51:36.798Z,8.80
2018-02-05T17:54:05.435Z,10.18
2018-02-05T17:56:34.029Z,8.10
2018-02-05T17:59:02.937Z,8.43
2018-02-05T18:01:31.504Z,8.70
2018-02-05T18:04:00.999Z,8.75
2018-02-05T18:06:30.333Z,10.70
2018-02-05T18:08:59.077Z,10.43
2018-02-05T18:11:28.402Z,9.27
2018-02-05T18:13:56.952Z,9.00
2018-02-05T18:16:27.103Z,8.13
2018-02-05T18:18:56.433Z,8.02
2018-02-05T18:21:25.052Z,7.57
2018-02-05T18:23:54.103Z,5.85
2018-02-05T18:26:23.580Z,7.95
2018-02-05T18:28:52.192Z,8.20
2018-02-05T18:31:20.983Z,8.85
2018-02-05T18:33:49.776Z,7.35
2018-02-05T18:36:18.415Z,8.02
2018-02-05T18:38:47.137Z,8.18
2018-02-05T18:41:15.999Z,7.80
2018-02-05T18:43:45.552Z,6.82
2018-02-05T18:46:14.059Z,9.38
2018-02-05T18:48:42.935Z,6.62
2018-02-05T18:51:11.541Z,6.28
2018-02-05T18:53:39.890Z,7.62
2018-02-05T18:56:09.225Z,7.65
2018-02-05T18:58:38.959Z,7.60
2018-02-05T19:01:08.523Z,8.00
2018-02-05T19:03:37.480Z,8.18
2018-02-05T19:06:06.932Z,7.28
2018-02-05T19:08:35.696Z,6.72
2018-02-05T19:11:06.367Z,7.12
2018-02-05T19:13:35.365Z,7.90
2018-02-05T19:16:04.269Z,8.25
2018-02-05T19:18:33.126Z,8.10
2018-02-05T19:21:03.058Z,8.15
2018-02-05T19:23:31.654Z,8.30
2018-02-05T19:26:00.677Z,8.00
2018-02-05T19:28:29.731Z,7.62
2018-02-05T19:30:58.839Z,7.55
2018-02-05T19:33:27.516Z,8.02
2018-02-05T19:35:56.214Z,8.35
2018-02-05T19:38:25.190Z,8.65
2018-02-05T19:40:53.668Z,8.20
2018-02-05T19:43:22.898Z,7.70
2018-02-05T19:45:51.570Z,7.12
2018-02-05T19:48:20.671Z,8.02
2018-02-05T19:50:49.346Z,8.00
2018-02-05T19:53:18.127Z,8.95
2018-02-05T19:55:46.985Z,8.88
2018-02-05T19:58:15.603Z,8.20
2018-02-05T20:00:44.028Z,8.32
2018-02-05T20:03:13.022Z,7.72
2018-02-05T20:05:41.858Z,8.65
2018-02-05T20:08:10.349Z,7.70
2018-02-05T20:10:38.780Z,8.30
2018-02-05T20:13:07.822Z,7.82
2018-02-05T20:15:36.608Z,8.73
2018-02-05T20:18:05.570Z,8.25
2018-02-05T20:20:35.241Z,7.18
2018-02-05T20:23:04.886Z,7.78
2018-02-05T20:25:33.524Z,7.55
2018-02-05T20:28:03.143Z,7.60
2018-02-05T20:30:31.969Z,7.97
2018-02-05T20:33:01.391Z,7.60
2018-02-05T20:35:30.256Z,7.70
2018-02-05T20:37:58.988Z,7.70
2018-02-05T20:40:27.726Z,7.72
2018-02-05T20:42:56.634Z,8.60
2018-02-05T20:45:25.337Z,7.45
2018-02-05T20:47:54.093Z,7.82
2018-02-05T20:50:23.178Z,7.68
2018-02-05T20:52:54.138Z,6.25
2018-02-05T20:55:23.090Z,7.93
2018-02-05T20:57:52.159Z,10.63
2018-02-05T21:00:23.062Z,8.65
2018-02-05T21:02:51.886Z,8.43
2018-02-05T21:05:20.823Z,8.38
2018-02-05T21:07:49.673Z,8.75
2018-02-05T21:10:18.659Z,8.57
2018-02-05T21:12:49.575Z,6.65
2018-02-05T21:15:18.287Z,9.05
2018-02-05T21:17:47.933Z,7.65
2018-02-05T21:20:17.564Z,8.25
2018-02-05T21:22:47.120Z,8.18
2018-02-05T21:25:17.089Z,8.35
2018-02-05T21:27:47.071Z,8.43
2018-02-05T21:30:15.593Z,8.15
2018-02-05T21:32:44.409Z,8.75
2018-02-05T21:35:13.738Z,7.62
2018-02-05T21:37:43.253Z,10.27
2018-02-05T21:40:13.923Z,8.60
2018-02-05T21:42:46.086Z,8.10
2018-02-05T21:45:15.393Z,8.60
2018-02-05T21:47:46.202Z,8.68
2018-02-05T21:50:15.468Z,8.02
2018-02-05T21:52:44.544Z,9.70
2018-02-05T21:55:14.318Z,9.15
2018-02-05T21:57:43.586Z,8.35
2018-02-05T22:00:13.495Z,8.40
2018-02-05T22:02:47.806Z,9.23
2018-02-05T22:05:18.212Z,7.68
2018-02-05T22:07:47.848Z,8.80
2018-02-05T22:10:16.438Z,9.70
2018-02-05T22:12:44.998Z,8.60
2018-02-05T22:15:13.729Z,7.93
2018-02-05T22:17:43.573Z,8.90
2018-02-05T22:20:13.018Z,8.32
2018-02-05T22:22:43.317Z,8.60
2018-02-05T22:25:12.172Z,8.45
2018-02-05T22:27:42.156Z,8.75
2018-02-05T22:30:11.294Z,8.65
2018-02-05T22:32:40.629Z,8.13
2018-02-05T22:35:10.133Z,8.90
2018-02-05T22:37:39.360Z,9.00
2018-02-05T22:40:07.846Z,8.00
2018-02-05T22:42:37.590Z,9.15
2018-02-05T22:45:06.928Z,7.87
2018-02-05T22:47:35.988Z,8.80
2018-02-05T22:50:05.287Z,9.60
2018-02-05T22:52:33.687Z,9.63
2018-02-05T22:55:02.453Z,9.50
2018-02-05T22:57:31.942Z,9.90
2018-02-05T23:00:01.876Z,8.75
2018-02-05T23:02:32.543Z,9.00
2018-02-05T23:05:03.418Z,8.50
2018-02-05T23:07:33.826Z,9.77
2018-02-05T23:10:03.442Z,9.43
2018-02-05T23:12:33.567Z,9.60
2018-02-05T23:15:02.136Z,9.05
2018-02-05T23:17:30.730Z,7.57
2018-02-05T23:19:59.788Z,8.30
2018-02-05T23:22:29.977Z,10.55
2018-02-05T23:24:59.153Z,8.60
2018-02-05T23:27:27.756Z,8.30
2018-02-05T23:29:56.740Z,9.43
2018-02-05T23:35:27.028Z,9.00
2018-02-05T23:37:56.542Z,9.98
2018-02-05T23:40:25.623Z,9.80
2018-02-05T23:42:54.184Z,9.45
2018-02-05T23:45:22.598Z,10.80
2018-02-05T23:47:51.410Z,9.32
2018-02-05T23:50:19.976Z,9.50
2018-02-05T23:52:49.562Z,9.05
2018-02-05T23:55:17.962Z,9.73
2018-02-05T23:57:47.668Z,11.52
